Papere Vagabonde

Aviosuperficie Caposile LIKI

Pista 04


Pista 22

Le immagini vengono aggiornate ogni minuto
Cliccare sull'immagine per l'ingrandimento.

METAR LIPZ

LIPZ 051250Z 03003KT 360V060 9999 SCT015 07/03 Q1001 NOSIG

TAF LIPZ 051100Z 0512/0618 26008KT 9999 SCT030
  BECMG 0518/0520 02010KT


      

Alba: 07:34
Tramonto: 16:26

LOW LEVEL SIGWX CHART

ALL WEATHER DATA